createdAt,value
2023-04-07T00:02:05.296Z,88.60
2023-04-07T00:04:31.870Z,88.50
2023-04-07T00:06:58.426Z,87.90
2023-04-07T00:09:24.976Z,89.10
2023-04-07T00:11:51.827Z,89.90
2023-04-07T00:14:18.335Z,90.00
2023-04-07T00:16:44.828Z,90.30
2023-04-07T00:19:11.322Z,90.70
2023-04-07T00:21:37.810Z,90.30
2023-04-07T00:24:04.514Z,90.20
2023-04-07T00:26:32.191Z,90.70
2023-04-07T00:28:59.343Z,90.70
2023-04-07T00:31:26.332Z,90.50
2023-04-07T00:33:53.057Z,91.20
2023-04-07T00:36:19.962Z,91.40
2023-04-07T00:38:46.564Z,91.70
2023-04-07T00:41:13.114Z,92.10
2023-04-07T00:43:39.561Z,92.30
2023-04-07T00:46:06.159Z,92.30
2023-04-07T00:48:32.953Z,91.90
2023-04-07T00:50:59.463Z,91.70
2023-04-07T00:53:25.966Z,92.20
2023-04-07T00:55:55.541Z,92.80
2023-04-07T00:58:22.003Z,92.50
2023-04-07T01:03:18.084Z,92.50
2023-04-07T01:06:02.319Z,92.50
2023-04-07T01:09:34.255Z,92.90
2023-04-07T01:15:02.208Z,92.70
2023-04-07T01:17:29.159Z,92.40
2023-04-07T01:20:10.278Z,93.20
2023-04-07T01:22:56.666Z,93.20
2023-04-07T01:26:38.907Z,92.80
2023-04-07T01:29:49.856Z,92.80
2023-04-07T01:32:20.045Z,92.50
2023-04-07T01:34:51.035Z,92.20
2023-04-07T01:37:18.462Z,92.30
2023-04-07T01:39:45.102Z,92.50
2023-04-07T01:42:14.754Z,92.70
2023-04-07T01:44:42.546Z,92.80
2023-04-07T01:47:09.759Z,92.80
2023-04-07T01:49:38.403Z,92.80
2023-04-07T01:52:05.913Z,92.80
2023-04-07T01:54:33.842Z,93.00
2023-04-07T01:57:00.904Z,92.70
2023-04-07T01:59:27.860Z,92.60
2023-04-07T02:01:54.620Z,92.80
2023-04-07T02:04:51.968Z,92.60
2023-04-07T02:07:28.755Z,92.60
2023-04-07T02:10:01.907Z,92.60
2023-04-07T02:12:32.533Z,92.30
2023-04-07T02:15:00.715Z,92.30
2023-04-07T02:17:29.619Z,92.70
2023-04-07T02:19:58.280Z,92.70
2023-04-07T02:22:26.491Z,92.40
2023-04-07T02:24:52.998Z,92.70
2023-04-07T02:27:19.988Z,92.70
2023-04-07T02:29:46.564Z,92.60
2023-04-07T02:32:13.039Z,92.80
2023-04-07T02:34:41.247Z,92.80
2023-04-07T02:37:07.736Z,93.00
2023-04-07T02:39:34.297Z,93.10
2023-04-07T02:42:00.831Z,93.20
2023-04-07T02:44:27.335Z,93.10
2023-04-07T02:46:53.797Z,92.70
2023-04-07T02:49:20.264Z,92.70
2023-04-07T02:51:46.742Z,92.90
2023-04-07T02:54:13.232Z,92.60
2023-04-07T02:56:39.699Z,92.60
2023-04-07T02:59:06.464Z,92.20
2023-04-07T03:01:34.158Z,92.60
2023-04-07T03:04:00.866Z,92.60
2023-04-07T03:06:27.605Z,92.60
2023-04-07T03:08:54.110Z,92.30
2023-04-07T03:11:20.616Z,92.70
2023-04-07T03:13:47.120Z,92.70
2023-04-07T03:16:13.611Z,93.20
2023-04-07T03:18:40.154Z,92.90
2023-04-07T03:21:06.792Z,92.90
2023-04-07T03:23:33.268Z,93.30
2023-04-07T03:25:59.747Z,93.40
2023-04-07T03:28:26.229Z,93.50
2023-04-07T03:30:52.735Z,93.60
2023-04-07T03:33:19.668Z,93.40
2023-04-07T03:35:46.142Z,93.00
2023-04-07T03:38:12.624Z,92.90
2023-04-07T03:40:41.317Z,93.00
2023-04-07T03:43:11.770Z,93.00
2023-04-07T03:45:38.565Z,93.30
2023-04-07T03:48:05.518Z,93.50
2023-04-07T03:50:32.010Z,93.60
2023-04-07T03:52:58.490Z,94.00
2023-04-07T03:55:25.273Z,94.00
2023-04-07T03:57:51.755Z,94.20
2023-04-07T04:00:18.433Z,94.30
2023-04-07T04:02:45.037Z,94.30
2023-04-07T04:05:11.577Z,94.40
2023-04-07T04:07:38.069Z,94.20
2023-04-07T04:10:07.232Z,94.80
2023-04-07T04:12:33.733Z,94.90
2023-04-07T04:15:00.257Z,95.10
2023-04-07T04:17:26.801Z,95.20
2023-04-07T04:19:54.491Z,95.20
2023-04-07T04:22:21.130Z,95.40
2023-04-07T04:24:47.627Z,95.50
2023-04-07T04:27:14.106Z,95.70
2023-04-07T04:29:40.586Z,95.70
2023-04-07T04:32:07.095Z,95.40
2023-04-07T04:34:33.647Z,95.50
2023-04-07T04:37:00.400Z,96.20
2023-04-07T04:39:26.955Z,96.70
2023-04-07T04:41:53.433Z,96.50
2023-04-07T04:44:19.919Z,96.60
2023-04-07T04:46:46.405Z,96.10
2023-04-07T04:49:13.932Z,96.30
2023-04-07T04:51:40.433Z,96.40
2023-04-07T04:54:06.939Z,96.30
2023-04-07T04:56:33.710Z,97.00
2023-04-07T04:59:00.222Z,96.50
2023-04-07T05:01:26.740Z,96.50
2023-04-07T05:03:53.545Z,96.80
2023-04-07T05:06:20.655Z,97.00
2023-04-07T05:08:47.162Z,97.10
2023-04-07T05:11:13.671Z,96.90
2023-04-07T05:13:40.150Z,97.00
2023-04-07T05:16:07.184Z,97.30
2023-04-07T05:18:33.684Z,96.30
2023-04-07T05:21:01.270Z,96.40
2023-04-07T05:23:27.830Z,96.60
2023-04-07T05:25:54.327Z,96.70
2023-04-07T05:28:20.947Z,96.40
2023-04-07T05:30:47.996Z,96.20
2023-04-07T05:33:14.707Z,96.00
2023-04-07T05:35:41.346Z,96.40
2023-04-07T05:38:07.852Z,96.50
2023-04-07T05:40:36.894Z,96.40
2023-04-07T05:43:03.968Z,96.60
2023-04-07T05:45:30.533Z,97.00
2023-04-07T05:47:57.097Z,97.00
2023-04-07T05:50:23.596Z,96.60
2023-04-07T05:52:50.160Z,96.40
2023-04-07T05:55:16.693Z,95.80
2023-04-07T05:57:43.166Z,95.90
2023-04-07T06:00:10.872Z,95.40
2023-04-07T06:02:39.164Z,95.10
2023-04-07T06:05:06.854Z,94.90
2023-04-07T06:07:33.459Z,93.90
2023-04-07T06:10:00.184Z,94.20
2023-04-07T06:12:26.644Z,93.20
2023-04-07T06:14:55.535Z,91.80
2023-04-07T06:17:23.506Z,91.70
2023-04-07T06:19:50.042Z,90.70
2023-04-07T06:22:16.589Z,91.50
2023-04-07T06:24:43.096Z,92.10
2023-04-07T06:27:09.606Z,92.50
2023-04-07T06:29:36.119Z,92.30
2023-04-07T06:32:02.603Z,91.70
2023-04-07T06:34:29.085Z,92.20
2023-04-07T06:36:58.091Z,92.20
2023-04-07T06:39:27.116Z,91.70
2023-04-07T06:41:53.620Z,90.40
2023-04-07T06:44:20.239Z,90.20
2023-04-07T06:46:49.568Z,91.00
2023-04-07T06:49:16.094Z,90.70
2023-04-07T06:51:42.589Z,92.20
2023-04-07T06:54:12.150Z,91.80
2023-04-07T06:56:39.532Z,91.10
2023-04-07T06:59:06.152Z,90.70
2023-04-07T07:01:33.466Z,89.70
2023-04-07T07:04:00.737Z,89.40
2023-04-07T07:06:27.700Z,90.60
2023-04-07T07:08:54.299Z,90.50
2023-04-07T07:11:20.801Z,88.60
2023-04-07T07:13:47.398Z,87.10
2023-04-07T07:16:14.189Z,87.30
2023-04-07T07:18:40.724Z,86.10
2023-04-07T07:21:08.205Z,84.50
2023-04-07T07:23:34.778Z,83.00
2023-04-07T07:26:02.399Z,83.80
2023-04-07T07:28:28.904Z,85.00
2023-04-07T07:30:55.746Z,83.50
2023-04-07T07:33:22.248Z,83.40
2023-04-07T07:35:48.917Z,82.40
2023-04-07T07:38:15.462Z,80.90
2023-04-07T07:40:41.926Z,82.60
2023-04-07T07:43:08.445Z,81.00
2023-04-07T07:45:34.924Z,79.90
2023-04-07T07:48:01.451Z,82.40
2023-04-07T07:50:27.997Z,81.50
2023-04-07T07:52:54.499Z,80.10
2023-04-07T07:55:21.038Z,78.80
2023-04-07T07:57:47.582Z,79.00
2023-04-07T08:00:14.311Z,76.50
2023-04-07T08:02:40.861Z,77.00
2023-04-07T08:05:07.924Z,75.30
2023-04-07T08:07:34.923Z,75.80
2023-04-07T08:10:01.549Z,75.10
2023-04-07T08:12:28.062Z,76.10
2023-04-07T08:14:54.550Z,75.30
2023-04-07T08:17:21.039Z,74.80
2023-04-07T08:19:47.529Z,74.80
2023-04-07T08:22:14.082Z,75.80
2023-04-07T08:24:41.052Z,74.20
2023-04-07T08:27:07.562Z,73.10
2023-04-07T08:29:34.054Z,74.40
2023-04-07T08:32:00.618Z,72.10
2023-04-07T08:34:27.155Z,72.30
2023-04-07T08:36:53.654Z,70.80
2023-04-07T08:39:20.123Z,71.40
2023-04-07T08:41:49.691Z,70.80
2023-04-07T08:44:17.348Z,68.50
2023-04-07T08:46:46.111Z,67.90
2023-04-07T08:49:13.346Z,66.80
2023-04-07T08:51:46.900Z,66.50
2023-04-07T08:54:21.741Z,65.80
2023-04-07T08:56:48.289Z,61.70
2023-04-07T08:59:24.610Z,62.20
2023-04-07T09:01:52.038Z,59.70
2023-04-07T09:04:19.128Z,57.70
2023-04-07T09:06:45.694Z,56.00
2023-04-07T09:09:13.096Z,56.10
2023-04-07T09:11:40.840Z,54.30
2023-04-07T09:14:07.854Z,52.40
2023-04-07T09:16:35.374Z,51.30
2023-04-07T09:19:01.945Z,51.50
2023-04-07T09:21:51.266Z,51.70
2023-04-07T09:24:26.995Z,51.70
2023-04-07T09:27:18.920Z,53.20
2023-04-07T09:29:47.483Z,53.40
2023-04-07T09:32:40.486Z,51.90
2023-04-07T09:35:07.797Z,52.00
2023-04-07T09:37:34.296Z,51.40
2023-04-07T09:40:00.955Z,50.60
2023-04-07T09:42:31.591Z,51.00
2023-04-07T09:45:02.501Z,51.20
2023-04-07T09:47:31.987Z,51.50
2023-04-07T09:50:01.205Z,51.90
2023-04-07T09:53:02.345Z,50.50
2023-04-07T09:55:30.273Z,51.00
2023-04-07T09:57:57.040Z,50.70
2023-04-07T10:00:24.808Z,50.10
2023-04-07T10:02:52.363Z,51.10
2023-04-07T10:05:21.696Z,50.60
2023-04-07T10:07:48.742Z,51.80
2023-04-07T10:10:15.776Z,50.60
2023-04-07T10:12:42.755Z,49.20
2023-04-07T10:15:15.680Z,49.40
2023-04-07T10:17:49.522Z,49.80
2023-04-07T10:20:20.173Z,49.50
2023-04-07T10:22:50.643Z,48.60
2023-04-07T10:25:21.952Z,49.10
2023-04-07T10:28:03.497Z,48.80
2023-04-07T10:30:32.784Z,49.20
2023-04-07T10:32:59.364Z,48.70
2023-04-07T10:35:26.217Z,48.60
2023-04-07T10:39:44.576Z,49.60
2023-04-07T10:43:36.743Z,49.10
2023-04-07T10:46:03.274Z,49.60
2023-04-07T10:48:32.375Z,49.80
2023-04-07T10:51:31.948Z,49.40
2023-04-07T10:54:26.290Z,49.20
2023-04-07T10:57:26.892Z,49.20
2023-04-07T11:00:15.675Z,49.90
2023-04-07T11:02:42.810Z,49.10
2023-04-07T11:05:21.937Z,49.60
2023-04-07T11:07:58.570Z,49.80
2023-04-07T11:10:25.530Z,49.00
2023-04-07T11:13:01.368Z,49.30
2023-04-07T11:15:27.920Z,48.70
2023-04-07T11:19:52.810Z,50.30
2023-04-07T11:24:48.993Z,49.70
2023-04-07T11:27:16.069Z,51.30
2023-04-07T11:29:43.194Z,50.40
2023-04-07T11:32:12.301Z,51.30
2023-04-07T11:34:39.484Z,49.40
2023-04-07T11:37:27.925Z,48.30
2023-04-07T11:39:56.708Z,49.20
2023-04-07T11:42:37.830Z,49.20
2023-04-07T11:45:08.176Z,47.60
2023-04-07T11:47:37.198Z,48.80
2023-04-07T11:50:04.050Z,47.60
2023-04-07T11:52:47.907Z,47.30
2023-04-07T11:55:23.573Z,48.40
2023-04-07T11:57:51.194Z,48.50
2023-04-07T12:00:19.635Z,47.30
2023-04-07T12:02:46.733Z,49.50
2023-04-07T12:05:13.575Z,47.50
2023-04-07T12:07:41.265Z,47.10
2023-04-07T12:10:22.232Z,47.30
2023-04-07T12:12:49.323Z,49.50
2023-04-07T12:15:16.002Z,48.90
2023-04-07T12:17:47.876Z,48.10
2023-04-07T12:20:15.745Z,47.70
2023-04-07T12:22:42.262Z,48.60
2023-04-07T12:25:08.946Z,47.30
2023-04-07T12:27:42.910Z,47.80
2023-04-07T12:30:10.906Z,48.20
2023-04-07T12:32:37.443Z,47.40
2023-04-07T12:35:04.753Z,45.90
2023-04-07T12:37:32.134Z,46.90
2023-04-07T12:39:59.184Z,47.00
2023-04-07T12:42:25.715Z,47.00
2023-04-07T12:44:52.331Z,47.20
2023-04-07T12:47:18.850Z,47.40
2023-04-07T12:49:45.509Z,47.20
2023-04-07T12:52:12.016Z,47.90
2023-04-07T12:54:38.547Z,47.80
2023-04-07T12:57:05.058Z,47.60
2023-04-07T12:59:31.557Z,46.70
2023-04-07T13:01:58.157Z,46.90
2023-04-07T13:04:27.237Z,46.20
2023-04-07T13:06:53.948Z,47.20
2023-04-07T13:09:20.511Z,46.30
2023-04-07T13:11:47.153Z,47.30
2023-04-07T13:14:13.627Z,46.50
2023-04-07T13:16:40.139Z,47.10
2023-04-07T13:19:08.516Z,47.20
2023-04-07T13:21:46.272Z,46.70
2023-04-07T13:24:14.087Z,47.50
2023-04-07T13:26:40.569Z,47.60
2023-04-07T13:29:07.099Z,47.50
2023-04-07T13:31:33.586Z,47.50
2023-04-07T13:34:00.101Z,47.40
2023-04-07T13:36:27.649Z,46.60
2023-04-07T13:38:54.147Z,47.20
2023-04-07T13:41:20.962Z,47.90
2023-04-07T13:43:47.732Z,46.90
2023-04-07T13:46:27.397Z,46.70
2023-04-07T13:48:55.845Z,47.70
2023-04-07T13:51:22.324Z,47.70
2023-04-07T13:53:49.133Z,46.90
2023-04-07T13:56:15.796Z,47.30
2023-04-07T13:58:42.441Z,47.10
2023-04-07T14:01:09.005Z,47.10
2023-04-07T14:03:35.567Z,47.80
2023-04-07T14:06:02.607Z,46.50
2023-04-07T14:08:29.121Z,46.40
2023-04-07T14:10:55.646Z,46.90
2023-04-07T14:13:22.382Z,47.30
2023-04-07T14:15:50.106Z,47.10
2023-04-07T14:18:16.749Z,47.70
2023-04-07T14:20:43.442Z,47.10
2023-04-07T14:23:10.152Z,46.70
2023-04-07T14:25:36.664Z,46.90
2023-04-07T14:28:03.188Z,46.40
2023-04-07T14:30:30.415Z,46.60
2023-04-07T14:32:56.955Z,46.10
2023-04-07T14:35:23.509Z,47.50
2023-04-07T14:37:51.678Z,48.20
2023-04-07T14:40:21.357Z,49.70
2023-04-07T14:42:48.264Z,49.70
2023-04-07T14:45:15.189Z,49.70
2023-04-07T14:47:41.719Z,49.80
2023-04-07T14:50:08.681Z,50.40
2023-04-07T14:52:35.144Z,50.60
2023-04-07T14:55:01.758Z,51.00
2023-04-07T14:57:28.245Z,50.40
2023-04-07T14:59:54.750Z,50.30
2023-04-07T15:02:21.399Z,50.20
2023-04-07T15:04:48.087Z,50.00
2023-04-07T15:07:14.761Z,50.30
2023-04-07T15:09:41.255Z,49.70
2023-04-07T15:12:07.732Z,49.30
2023-04-07T15:14:34.234Z,49.30
2023-04-07T15:17:00.749Z,49.80
2023-04-07T15:19:27.259Z,49.50
2023-04-07T15:21:53.746Z,50.30
2023-04-07T15:24:21.444Z,49.90
2023-04-07T15:26:48.840Z,50.60
2023-04-07T15:29:15.388Z,52.20
2023-04-07T15:31:41.909Z,52.70
2023-04-07T15:34:08.415Z,52.60
2023-04-07T15:36:34.924Z,52.00
2023-04-07T15:39:05.928Z,52.50
2023-04-07T15:41:33.253Z,51.80
2023-04-07T15:44:01.087Z,52.30
2023-04-07T15:46:28.434Z,52.00
2023-04-07T15:48:55.179Z,52.40
2023-04-07T15:51:21.680Z,52.80
2023-04-07T15:53:48.402Z,52.30
2023-04-07T15:56:15.173Z,52.50
2023-04-07T15:58:41.993Z,53.30
2023-04-07T16:01:08.535Z,53.40
2023-04-07T16:03:35.170Z,53.50
2023-04-07T16:06:01.806Z,53.60
2023-04-07T16:08:28.306Z,53.60
2023-04-07T16:10:54.812Z,54.20
2023-04-07T16:13:21.317Z,53.90
2023-04-07T16:15:47.812Z,54.30
2023-04-07T16:18:14.367Z,54.90
2023-04-07T16:20:40.898Z,55.10
2023-04-07T16:23:07.419Z,55.20
2023-04-07T16:25:35.163Z,55.70
2023-04-07T16:28:01.666Z,55.60
2023-04-07T16:30:28.153Z,56.00
2023-04-07T16:32:54.760Z,56.20
2023-04-07T16:35:21.312Z,56.50
2023-04-07T16:37:49.275Z,56.80
2023-04-07T16:40:15.796Z,56.90
2023-04-07T16:42:42.323Z,57.00
2023-04-07T16:45:09.643Z,57.40
2023-04-07T16:47:38.073Z,57.30
2023-04-07T16:50:05.686Z,57.40
2023-04-07T16:52:32.394Z,57.40
2023-04-07T16:55:00.312Z,57.80
2023-04-07T16:57:26.981Z,57.90
2023-04-07T16:59:53.483Z,57.90
2023-04-07T17:02:20.211Z,58.20
2023-04-07T17:04:46.951Z,58.50
2023-04-07T17:07:13.781Z,58.70
2023-04-07T17:09:40.542Z,59.20
2023-04-07T17:12:07.083Z,59.80
2023-04-07T17:14:33.755Z,60.10
2023-04-07T17:17:01.268Z,61.10
2023-04-07T17:19:28.299Z,62.50
2023-04-07T17:21:55.297Z,62.70
2023-04-07T17:24:22.707Z,63.00
2023-04-07T17:26:49.339Z,63.40
2023-04-07T17:29:17.046Z,63.80
2023-04-07T17:31:43.651Z,63.90
2023-04-07T17:34:11.035Z,63.80
2023-04-07T17:36:37.822Z,65.10
2023-04-07T17:39:04.559Z,64.80
2023-04-07T17:41:34.099Z,65.00
2023-04-07T17:44:00.747Z,65.20
2023-04-07T17:46:27.328Z,65.10
2023-04-07T17:48:54.310Z,65.20
2023-04-07T17:51:20.824Z,65.50
2023-04-07T17:53:47.898Z,65.70
2023-04-07T17:56:14.545Z,66.30
2023-04-07T17:58:41.072Z,66.50
2023-04-07T18:01:10.459Z,66.50
2023-04-07T18:03:37.620Z,66.60
2023-04-07T18:06:07.866Z,67.00
2023-04-07T18:08:34.565Z,66.10
2023-04-07T18:11:01.061Z,66.80
2023-04-07T18:13:27.565Z,66.60
2023-04-07T18:15:54.088Z,66.10
2023-04-07T18:18:20.632Z,66.40
2023-04-07T18:20:49.046Z,67.00
2023-04-07T18:23:15.548Z,67.40
2023-04-07T18:25:42.034Z,67.60
2023-04-07T18:28:08.518Z,67.10
2023-04-07T18:30:35.252Z,67.40
2023-04-07T18:33:01.793Z,67.70
2023-04-07T18:35:28.323Z,68.20
2023-04-07T18:37:55.284Z,69.90
2023-04-07T18:40:21.875Z,69.50
2023-04-07T18:42:48.393Z,73.60
2023-04-07T18:45:14.904Z,72.20
2023-04-07T18:47:41.505Z,75.10
2023-04-07T18:50:08.567Z,78.10
2023-04-07T18:52:35.316Z,76.20
2023-04-07T18:55:02.131Z,77.50
2023-04-07T18:57:28.617Z,77.70
2023-04-07T18:59:55.078Z,79.70
2023-04-07T19:02:21.697Z,79.00
2023-04-07T19:04:48.579Z,78.40
2023-04-07T19:07:15.140Z,80.90
2023-04-07T19:09:41.787Z,80.30
2023-04-07T19:12:08.708Z,79.40
2023-04-07T19:14:35.205Z,79.00
2023-04-07T19:17:01.697Z,81.00
2023-04-07T19:19:28.212Z,81.00
2023-04-07T19:21:54.810Z,81.30
2023-04-07T19:24:21.297Z,81.10
2023-04-07T19:26:47.782Z,83.40
2023-04-07T19:29:14.286Z,85.50
2023-04-07T19:31:40.909Z,86.50
2023-04-07T19:34:07.463Z,84.90
2023-04-07T19:36:33.960Z,85.20
2023-04-07T19:39:00.453Z,80.60
2023-04-07T19:41:29.975Z,85.00
2023-04-07T19:43:56.446Z,85.20
2023-04-07T19:46:23.018Z,83.50
2023-04-07T19:48:49.753Z,84.00
2023-04-07T19:51:16.525Z,83.70
2023-04-07T19:53:43.017Z,83.60
2023-04-07T19:56:10.470Z,85.00
2023-04-07T19:58:37.743Z,83.30
2023-04-07T20:01:04.335Z,87.00
2023-04-07T20:03:31.256Z,87.30
2023-04-07T20:05:58.915Z,88.50
2023-04-07T20:08:25.426Z,87.70
2023-04-07T20:10:52.337Z,88.90
2023-04-07T20:13:19.527Z,90.50
2023-04-07T20:15:46.458Z,90.10
2023-04-07T20:18:13.177Z,88.30
2023-04-07T20:20:39.689Z,88.80
2023-04-07T20:23:06.166Z,88.30
2023-04-07T20:25:36.534Z,85.80
2023-04-07T20:28:03.083Z,85.60
2023-04-07T20:30:29.736Z,87.60
2023-04-07T20:32:56.284Z,90.10
2023-04-07T20:35:22.856Z,88.60
2023-04-07T20:37:49.933Z,90.30
2023-04-07T20:40:16.474Z,90.90
2023-04-07T20:42:45.957Z,89.40
2023-04-07T20:45:12.485Z,90.70
2023-04-07T20:47:39.698Z,90.40
2023-04-07T20:50:07.441Z,90.00
2023-04-07T20:52:38.718Z,91.10
2023-04-07T20:55:06.801Z,89.80
2023-04-07T20:57:33.307Z,88.70
2023-04-07T20:59:59.855Z,88.40
2023-04-07T21:02:26.470Z,89.00
2023-04-07T21:04:53.172Z,88.80
2023-04-07T21:07:19.674Z,88.00
2023-04-07T21:09:46.169Z,88.90
2023-04-07T21:12:13.442Z,90.50
2023-04-07T21:14:39.950Z,88.80
2023-04-07T21:17:08.418Z,90.20
2023-04-07T21:19:35.017Z,89.50
2023-04-07T21:22:01.601Z,88.50
2023-04-07T21:24:29.006Z,88.80
2023-04-07T21:26:55.774Z,90.20
2023-04-07T21:29:22.532Z,91.00
2023-04-07T21:31:49.298Z,91.00
2023-04-07T21:34:16.084Z,90.60
2023-04-07T21:36:42.853Z,90.70
2023-04-07T21:39:09.440Z,91.00
2023-04-07T21:41:36.418Z,90.50
2023-04-07T21:44:02.967Z,91.60
2023-04-07T21:46:29.527Z,91.40
2023-04-07T21:48:56.037Z,92.00
2023-04-07T21:51:22.529Z,90.90
2023-04-07T21:53:48.989Z,89.80
2023-04-07T21:56:15.640Z,89.70
2023-04-07T21:58:42.199Z,88.80
2023-04-07T22:01:08.867Z,90.00
2023-04-07T22:03:35.614Z,90.40
2023-04-07T22:06:02.273Z,89.50
2023-04-07T22:08:28.896Z,89.50
2023-04-07T22:10:56.017Z,89.10
2023-04-07T22:13:22.504Z,88.80
2023-04-07T22:15:49.742Z,89.70
2023-04-07T22:18:16.432Z,89.30
2023-04-07T22:20:43.002Z,89.50
2023-04-07T22:23:09.605Z,89.70
2023-04-07T22:25:36.095Z,90.80
2023-04-07T22:28:02.626Z,91.40
2023-04-07T22:30:29.089Z,91.50
2023-04-07T22:32:55.583Z,91.40
2023-04-07T22:35:22.181Z,91.10
2023-04-07T22:37:48.694Z,91.80
2023-04-07T22:40:15.327Z,90.90
2023-04-07T22:42:41.784Z,91.20
2023-04-07T22:45:09.379Z,91.80
2023-04-07T22:47:36.214Z,92.90
2023-04-07T22:50:03.053Z,92.50
2023-04-07T22:52:29.587Z,92.80
2023-04-07T22:54:57.072Z,93.00
2023-04-07T22:57:24.890Z,93.10
2023-04-07T22:59:51.359Z,93.50
2023-04-07T23:02:18.048Z,94.00
2023-04-07T23:04:44.639Z,93.40
2023-04-07T23:07:11.165Z,93.30
2023-04-07T23:09:37.658Z,93.80
2023-04-07T23:12:04.340Z,94.70
2023-04-07T23:14:31.113Z,92.90
2023-04-07T23:16:57.862Z,91.80
2023-04-07T23:19:24.735Z,91.90
2023-04-07T23:21:51.588Z,92.90
2023-04-07T23:24:18.082Z,93.20
2023-04-07T23:26:44.573Z,93.00
2023-04-07T23:29:11.266Z,93.10
2023-04-07T23:31:37.806Z,93.90
2023-04-07T23:34:04.482Z,94.10
2023-04-07T23:36:30.974Z,94.20
2023-04-07T23:38:57.495Z,94.70
2023-04-07T23:41:24.054Z,94.50
2023-04-07T23:43:50.875Z,92.70
2023-04-07T23:46:17.475Z,92.30
2023-04-07T23:48:43.990Z,91.90
2023-04-07T23:51:10.494Z,91.70
2023-04-07T23:53:36.961Z,91.50
2023-04-07T23:56:03.509Z,91.60
2023-04-07T23:58:30.201Z,91.60
